首页
METAR-TAF:

METAR-TAF

机场 :

Thomaston-Upson County Airport

Thomaston, 喬治亞, 美国

纬度: 32-57-18N, 经度: 084-15-52W, 海拔: 243米

当前天气观测

该预报发布于37分钟前的15:15 UTC
风速10节,风向东转东南,有时为15节阵风
温度 11°C
湿度 62%
气压 1028 hPa
能見度: 16.1公里
多云层高于7500英尺

METAR: KOPN 081515Z AUTO 11010G15KT 10SM BKN075 11/04 A3035 RMK AO2

时间: 10:52 (15:52 UTC)


TAF: 丢失

超过4000个机场的气象观测和天气预报(METAR&TAF报告)。

可查询的气象台以黄色和红色小点在地图上表示。

将鼠标移到小点上方,可查看气象台名称。

然后点击查看天气观测和预报。

如需切换地图:点击带黑十字的绿色按钮放大地图;点击带横线的绿色按钮缩小地图;或者点击绿色箭头查看邻近地区的地图。


METAR-TAF: